Time;durP1;ratioP1;P1;durP2;ratioP2;P2;SDS_P1;SDS_P2;PMS_P1;PMS_P2;Temp;Humidity;BMP_temperature;BMP_pressure;BME280_temperature;BME280_humidity;BME280_pressure;Samples;Min_cycle;Max_cycle;Signal;HPM_P1;HPM_P2
2024/01/17 00:00:51;;;;;;;33.80;18.40;;;;;;;-5.97;74.98;99408.61;103249;1258;106814;-79
2024/01/17 00:03:38;;;;;;;32.70;16.70;;;;;;;-5.88;75.12;99410.66;102459;1258;1003273;-79
2024/01/17 00:06:05;;;;;;;29.30;16.00;;;;;;;-5.82;75.81;99412.46;103251;1257;108319;-80
2024/01/17 00:08:32;;;;;;;28.30;16.20;;;;;;;-5.76;75.63;99410.86;103146;1258;138798;-79
2024/01/17 00:10:59;;;;;;;25.00;15.90;;;;;;;-5.73;75.84;99408.08;103292;1256;111545;-79
2024/01/17 00:13:26;;;;;;;27.00;14.60;;;;;;;-5.69;76.22;99406.95;103153;1258;106910;-80
2024/01/17 00:15:53;;;;;;;29.90;15.90;;;;;;;-5.63;76.42;99409.27;103066;1259;138601;-79
2024/01/17 00:18:19;;;;;;;30.50;16.80;;;;;;;-5.60;76.65;99400.36;103228;1256;107647;-80
2024/01/17 00:20:46;;;;;;;30.60;16.90;;;;;;;-5.54;76.95;99405.05;103182;1256;140868;-80
2024/01/17 00:23:14;;;;;;;28.60;17.10;;;;;;;-5.52;77.18;99401.19;103331;1258;112305;-80
2024/01/17 00:25:41;;;;;;;26.50;16.30;;;;;;;-5.49;77.73;99404.30;103121;1256;138784;-77
2024/01/17 00:28:08;;;;;;;31.60;17.00;;;;;;;-5.45;77.60;99403.85;103267;1255;97792;-79
2024/01/17 00:30:34;;;;;;;28.40;15.40;;;;;;;-5.39;78.09;99396.16;103308;1255;107813;-78
2024/01/17 00:33:01;;;;;;;30.20;16.70;;;;;;;-5.36;77.91;99396.39;103157;1256;138502;-80
2024/01/17 00:35:28;;;;;;;32.10;16.30;;;;;;;-5.29;78.40;99402.61;103197;1255;111040;-81
2024/01/17 00:37:55;;;;;;;30.40;17.30;;;;;;;-5.24;78.30;99402.35;103114;1260;139100;-80
2024/01/17 00:40:22;;;;;;;29.60;16.40;;;;;;;-5.21;78.26;99397.85;103256;1256;97809;-80
2024/01/17 00:42:49;;;;;;;28.90;17.10;;;;;;;-5.11;78.63;99406.32;103289;1256;106395;-80
2024/01/17 00:45:16;;;;;;;33.00;18.50;;;;;;;-5.07;78.78;99402.65;103181;1258;138775;-80
2024/01/17 00:47:43;;;;;;;33.80;18.90;;;;;;;-5.07;78.56;99401.98;103299;1256;110958;-80
2024/01/17 00:50:11;;;;;;;34.00;19.60;;;;;;;-5.04;79.07;99402.17;103083;1256;138630;-81
2024/01/17 00:52:38;;;;;;;38.00;22.50;;;;;;;-5.04;78.75;99401.18;103389;1256;98617;-80
2024/01/17 00:55:06;;;;;;;42.50;24.30;;;;;;;-5.04;79.31;99400.15;103201;1256;108119;-80
2024/01/17 00:57:33;;;;;;;46.70;25.00;;;;;;;-5.08;79.55;99405.84;103087;1258;138486;-80
2024/01/17 01:00:00;;;;;;;49.70;28.10;;;;;;;-5.17;80.17;99407.91;102539;1258;1003059;-80
2024/01/17 01:02:27;;;;;;;53.90;29.50;;;;;;;-5.27;80.29;99406.04;102358;1256;1003059;-80
2024/01/17 01:04:54;;;;;;;51.00;27.90;;;;;;;-5.37;81.33;99409.60;103143;1256;98409;-80
2024/01/17 01:07:21;;;;;;;51.30;28.10;;;;;;;-5.45;81.51;99404.02;102515;1256;1003754;-79
2024/01/17 01:09:48;;;;;;;50.20;27.40;;;;;;;-5.52;81.25;99397.98;103205;1255;139276;-80
2024/01/17 01:12:14;;;;;;;46.10;27.60;;;;;;;-5.54;81.70;99396.58;103276;1258;111546;-80
2024/01/17 01:14:41;;;;;;;49.50;28.40;;;;;;;-5.56;82.18;99383.67;103147;1256;138510;-80
2024/01/17 01:17:08;;;;;;;48.30;28.40;;;;;;;-5.56;82.44;99380.63;103198;1256;98147;-82
2024/01/17 01:19:35;;;;;;;54.30;30.40;;;;;;;-5.55;82.05;99376.91;103276;1256;107644;-81
2024/01/17 01:22:02;;;;;;;55.30;31.10;;;;;;;-5.53;81.90;99380.34;103332;1256;97819;-81
2024/01/17 01:24:29;;;;;;;61.40;33.30;;;;;;;-5.53;82.30;99381.70;103309;1256;111023;-81
2024/01/17 01:26:56;;;;;;;58.20;31.70;;;;;;;-5.60;82.40;99374.43;103032;1256;138245;-81
2024/01/17 01:29:23;;;;;;;55.60;30.40;;;;;;;-5.64;82.93;99374.36;102545;1256;1002670;-81
2024/01/17 01:31:50;;;;;;;54.70;29.90;;;;;;;-5.67;82.65;99374.48;103086;1256;139173;-81
2024/01/17 01:34:17;;;;;;;52.80;29.30;;;;;;;-5.68;82.80;99379.38;103288;1254;98181;-81
2024/01/17 01:36:44;;;;;;;54.20;31.00;;;;;;;-5.66;82.74;99382.63;103244;1256;113182;-81
2024/01/17 01:39:11;;;;;;;59.10;32.40;;;;;;;-5.65;82.62;99374.70;103088;1257;137968;-81
2024/01/17 01:41:38;;;;;;;59.70;34.00;;;;;;;-5.62;82.53;99374.23;103179;1258;97813;-82
2024/01/17 01:44:05;;;;;;;58.00;32.30;;;;;;;-5.59;82.48;99375.80;102995;1258;138310;-81
2024/01/17 01:46:33;;;;;;;61.80;34.60;;;;;;;-5.57;82.48;99369.90;102349;1256;1002671;-81
2024/01/17 01:49:01;;;;;;;62.30;32.90;;;;;;;-5.60;82.81;99365.96;102428;1256;1002563;-81
2024/01/17 01:55:48;;;;;;;60.60;32.20;;;;;;;-5.62;83.28;99364.73;103157;1258;139055;-82
2024/01/17 01:58:17;;;;;;;55.00;30.00;;;;;;;-5.62;82.97;99359.84;103200;1256;108661;-83
2024/01/17 02:00:44;;;;;;;57.60;31.20;;;;;;;-5.58;83.63;99361.59;103182;1256;97837;-83
2024/01/17 02:03:13;;;;;;;57.50;32.70;;;;;;;-5.55;84.37;99362.70;102283;1256;1003794;-83
2024/01/17 02:05:41;;;;;;;63.20;34.90;;;;;;;-5.54;84.28;99362.54;103276;1256;105992;-84
2024/01/17 02:08:08;;;;;;;59.80;33.50;;;;;;;-5.54;84.26;99360.00;103110;1254;138225;-83
2024/01/17 02:10:36;;;;;;;67.00;35.70;;;;;;;-5.53;83.76;99356.11;103244;1257;107745;-82
2024/01/17 02:13:03;;;;;;;70.40;36.60;;;;;;;-5.52;84.03;99356.83;102520;1258;1002607;-82
2024/01/17 02:15:30;;;;;;;65.30;35.60;;;;;;;-5.54;83.73;99357.30;102351;1256;1003164;-81
2024/01/17 02:17:56;;;;;;;58.40;33.30;;;;;;;-5.53;83.76;99355.27;102435;1256;1003107;-81
2024/01/17 02:20:24;;;;;;;60.00;32.90;;;;;;;-5.53;84.70;99352.05;103108;1258;139225;-82
2024/01/17 02:22:51;;;;;;;56.80;32.70;;;;;;;-5.54;84.26;99356.79;103073;1256;108009;-82
2024/01/17 02:25:18;;;;;;;64.70;32.30;;;;;;;-5.53;84.15;99355.95;103169;1254;97687;-82
2024/01/17 02:27:45;;;;;;;59.10;32.60;;;;;;;-5.52;84.78;99355.63;103003;1260;138311;-82
2024/01/17 02:30:14;;;;;;;61.60;33.30;;;;;;;-5.51;84.90;99356.33;103142;1260;106555;-82
2024/01/17 02:32:42;;;;;;;62.80;33.60;;;;;;;-5.51;84.93;99355.82;103254;1256;138728;-81
2024/01/17 02:35:10;;;;;;;64.10;35.50;;;;;;;-5.53;84.29;99352.73;103283;1256;107752;-82
2024/01/17 02:37:36;;;;;;;63.90;35.00;;;;;;;-5.55;83.97;99347.96;103244;1255;97981;-82
2024/01/17 02:40:05;;;;;;;64.70;36.70;;;;;;;-5.59;84.55;99352.44;102537;1256;1003036;-82
2024/01/17 02:42:32;;;;;;;68.70;36.00;;;;;;;-5.64;84.83;99349.14;103234;1258;106636;-81
2024/01/17 02:44:59;;;;;;;62.70;34.30;;;;;;;-5.66;84.54;99342.51;102988;1258;138728;-82
2024/01/17 02:47:26;;;;;;;64.40;34.10;;;;;;;-5.66;84.38;99340.80;103263;1254;108002;-81
2024/01/17 02:49:58;;;;;;;65.70;33.50;;;;;;;-5.64;85.15;99340.33;103104;1255;138855;-81
2024/01/17 02:52:25;;;;;;;66.90;31.60;;;;;;;-5.61;85.13;99342.08;103276;1255;111738;-82
2024/01/17 02:54:52;;;;;;;59.90;31.30;;;;;;;-5.58;84.82;99340.61;103228;1255;107693;-82
2024/01/17 02:57:20;;;;;;;62.40;33.60;;;;;;;-5.50;84.87;99349.91;103147;1256;138495;-82
2024/01/17 02:59:47;;;;;;;59.40;32.80;;;;;;;-5.46;84.94;99345.73;103376;1255;106993;-82
2024/01/17 03:02:14;;;;;;;65.70;33.70;;;;;;;-5.43;84.94;99342.21;102443;1256;1002938;-83
2024/01/17 03:04:41;;;;;;;62.60;33.30;;;;;;;-5.42;84.58;99340.37;102486;1256;1003009;-82
2024/01/17 03:07:08;;;;;;;69.40;36.30;;;;;;;-5.42;85.12;99339.69;102377;1256;1005694;-82
2024/01/17 03:09:37;;;;;;;64.10;33.80;;;;;;;-5.43;85.21;99336.96;102998;1256;138526;-83
2024/01/17 03:12:05;;;;;;;60.20;31.00;;;;;;;-5.44;85.68;99328.46;102339;1256;1002451;-83
2024/01/17 03:14:32;;;;;;;55.80;31.30;;;;;;;-5.44;85.44;99332.20;103049;1256;138930;-82
2024/01/17 03:17:00;;;;;;;57.40;31.80;;;;;;;-5.43;85.30;99326.46;103129;1259;111165;-82
2024/01/17 03:19:26;;;;;;;56.60;31.30;;;;;;;-5.40;85.63;99326.52;103204;1255;106683;-82
2024/01/17 03:21:54;;;;;;;59.70;31.10;;;;;;;-5.38;85.74;99323.86;103161;1256;138811;-82
2024/01/17 03:24:20;;;;;;;53.40;27.80;;;;;;;-5.35;85.61;99321.70;103306;1255;106975;-82
2024/01/17 03:26:47;;;;;;;55.60;31.90;;;;;;;-5.32;85.84;99315.98;103076;1256;139171;-83
2024/01/17 03:29:14;;;;;;;56.60;32.20;;;;;;;-5.29;85.52;99326.54;103161;1256;113953;-82
2024/01/17 03:31:41;;;;;;;61.20;32.20;;;;;;;-5.27;85.65;99327.75;103264;1256;107767;-83
2024/01/17 03:34:08;;;;;;;62.70;32.80;;;;;;;-5.28;84.99;99323.16;103228;1260;97823;-82
2024/01/17 03:36:35;;;;;;;59.70;33.80;;;;;;;-5.27;85.52;99319.78;103124;1256;107784;-81
2024/01/17 03:39:02;;;;;;;58.20;30.80;;;;;;;-5.28;85.33;99322.48;103110;1255;138043;-81
2024/01/17 03:41:29;;;;;;;58.60;31.70;;;;;;;-5.31;85.45;99321.59;103248;1256;110597;-81
2024/01/17 03:43:57;;;;;;;55.40;29.50;;;;;;;-5.33;85.19;99326.48;103149;1258;138919;-80
2024/01/17 03:46:25;;;;;;;56.80;30.50;;;;;;;-5.32;85.25;99331.05;103206;1260;97832;-80
2024/01/17 03:48:51;;;;;;;53.00;30.00;;;;;;;-5.31;85.61;99335.66;103171;1260;107222;-81
2024/01/17 03:51:19;;;;;;;53.00;28.80;;;;;;;-5.30;86.03;99334.66;103063;1256;138513;-81
2024/01/17 03:53:46;;;;;;;56.50;29.50;;;;;;;-5.26;85.62;99334.37;103157;1256;112180;-81
2024/01/17 03:56:13;;;;;;;54.30;31.50;;;;;;;-5.21;86.13;99324.63;103055;1256;138425;-80
2024/01/17 03:58:41;;;;;;;61.90;31.50;;;;;;;-5.19;85.66;99325.88;102489;1256;1003475;-81
2024/01/17 04:01:09;;;;;;;54.90;31.80;;;;;;;-5.18;85.67;99323.84;103259;1256;107625;-82
2024/01/17 04:03:36;;;;;;;61.10;32.60;;;;;;;-5.21;85.96;99324.64;103163;1256;140268;-81
2024/01/17 04:06:03;;;;;;;57.80;30.80;;;;;;;-5.27;86.14;99324.02;103311;1257;110117;-82
2024/01/17 04:08:30;;;;;;;55.10;29.70;;;;;;;-5.31;85.87;99327.02;103153;1256;138929;-81
2024/01/17 04:10:57;;;;;;;55.60;28.60;;;;;;;-5.33;85.71;99323.77;103139;1256;98323;-82
2024/01/17 04:13:24;;;;;;;52.00;27.40;;;;;;;-5.33;86.34;99325.80;103213;1256;107120;-81
2024/01/17 04:15:51;;;;;;;51.00;28.00;;;;;;;-5.30;86.16;99321.94;103185;1256;138530;-81
2024/01/17 04:18:18;;;;;;;56.70;29.20;;;;;;;-5.28;85.87;99316.55;102533;1258;1003091;-80
2024/01/17 04:20:45;;;;;;;54.00;28.30;;;;;;;-5.26;85.84;99315.23;103176;1255;139792;-81
2024/01/17 04:23:12;;;;;;;55.10;30.20;;;;;;;-5.25;85.73;99311.34;103270;1255;98322;-82
2024/01/17 04:25:39;;;;;;;53.90;29.90;;;;;;;-5.25;85.43;99308.64;103239;1256;108107;-82
2024/01/17 04:28:08;;;;;;;50.00;27.10;;;;;;;-5.27;85.84;99315.73;103056;1260;138031;-82
2024/01/17 04:30:35;;;;;;;48.50;25.90;;;;;;;-5.28;85.95;99314.36;103136;1256;110606;-81
2024/01/17 04:33:03;;;;;;;49.40;24.50;;;;;;;-5.25;86.46;99315.41;103032;1257;138726;-81
2024/01/17 04:35:30;;;;;;;45.00;25.10;;;;;;;-5.23;85.95;99318.66;102438;1256;1003073;-80
2024/01/17 04:37:57;;;;;;;46.00;24.10;;;;;;;-5.18;86.09;99318.59;102990;1256;138922;-80
2024/01/17 04:40:24;;;;;;;48.50;26.40;;;;;;;-5.12;86.24;99321.05;103315;1256;97689;-81
2024/01/17 04:42:51;;;;;;;49.40;26.80;;;;;;;-5.08;85.85;99320.94;103204;1258;111359;-81
2024/01/17 04:45:18;;;;;;;48.20;27.00;;;;;;;-5.04;85.91;99321.33;103141;1255;139053;-81
2024/01/17 04:47:45;;;;;;;61.00;27.40;;;;;;;-5.05;85.35;99315.58;103288;1256;97829;-80
2024/01/17 04:50:13;;;;;;;51.60;28.00;;;;;;;-5.01;85.39;99317.84;103147;1254;138143;-80
2024/01/17 04:52:40;;;;;;;46.00;25.90;;;;;;;-5.03;85.46;99319.50;103225;1256;96280;-83
2024/01/17 04:55:08;;;;;;;49.60;24.60;;;;;;;-5.02;85.63;99316.29;103260;1256;111290;-81
2024/01/17 04:57:36;;;;;;;42.40;24.40;;;;;;;-5.02;85.60;99313.59;103070;1256;138537;-84
2024/01/17 05:00:03;;;;;;;49.50;24.90;;;;;;;-5.01;84.98;99313.77;103145;1256;98323;-82
2024/01/17 05:02:30;;;;;;;46.80;24.00;;;;;;;-4.99;85.25;99313.80;103029;1256;138123;-82
2024/01/17 05:04:57;;;;;;;43.20;25.20;;;;;;;-4.97;84.93;99316.88;103336;1258;97800;-82
2024/01/17 05:07:24;;;;;;;48.80;27.00;;;;;;;-4.96;84.98;99315.88;102504;1256;1003139;-82
2024/01/17 05:09:51;;;;;;;50.80;28.00;;;;;;;-4.96;85.15;99314.18;103075;1256;138729;-82
2024/01/17 05:12:18;;;;;;;52.70;29.00;;;;;;;-4.96;85.14;99310.27;103200;1256;97920;-82
2024/01/17 05:14:45;;;;;;;51.10;25.70;;;;;;;-5.00;85.13;99308.19;103058;1258;137832;-82
2024/01/17 05:17:12;;;;;;;43.90;24.50;;;;;;;-5.03;84.75;99312.37;103081;1257;97710;-82
2024/01/17 05:19:39;;;;;;;45.90;24.70;;;;;;;-5.03;85.07;99310.50;103168;1260;110351;-83
2024/01/17 05:22:09;;;;;;;46.50;24.80;;;;;;;-5.03;85.14;99309.66;103045;1256;138344;-83
2024/01/17 05:24:37;;;;;;;43.60;23.90;;;;;;;-5.01;85.42;99313.60;103171;1258;97827;-83
2024/01/17 05:27:05;;;;;;;53.40;25.50;;;;;;;-4.99;85.07;99308.71;103135;1255;137973;-85
2024/01/17 05:29:35;;;;;;;47.80;26.90;;;;;;;-4.97;85.18;99307.04;103382;1254;97794;-84
2024/01/17 05:32:02;;;;;;;48.80;26.20;;;;;;;-4.96;85.11;99307.73;103358;1257;138458;-84
2024/01/17 05:34:29;;;;;;;55.70;27.40;;;;;;;-4.97;84.75;99310.09;103381;1258;107380;-84
2024/01/17 05:36:57;;;;;;;50.20;27.60;;;;;;;-4.99;85.26;99305.14;103375;1256;98370;-84
2024/01/17 05:39:24;;;;;;;45.80;25.90;;;;;;;-5.00;85.04;99314.30;102398;1256;1003074;-82
2024/01/17 05:41:51;;;;;;;46.30;25.80;;;;;;;-5.00;84.86;99312.77;103202;1258;97951;-84
2024/01/17 05:44:17;;;;;;;47.60;25.10;;;;;;;-4.98;84.85;99308.55;102476;1254;1003379;-84
2024/01/17 05:46:45;;;;;;;48.20;26.60;;;;;;;-4.96;84.95;99306.20;102478;1256;1003775;-83
2024/01/17 05:49:12;;;;;;;47.60;25.30;;;;;;;-4.95;84.74;99305.73;103292;1258;97935;-84
2024/01/17 05:51:39;;;;;;;50.30;25.10;;;;;;;-4.93;84.90;99306.42;102424;1255;1003812;-82
2024/01/17 05:54:06;;;;;;;49.20;24.60;;;;;;;-4.94;84.94;99307.77;102453;1256;1003298;-83
2024/01/17 05:56:34;;;;;;;45.10;25.60;;;;;;;-4.92;84.82;99305.59;102437;1256;1002641;-83
2024/01/17 05:59:01;;;;;;;49.30;26.20;;;;;;;-4.90;84.59;99302.55;102506;1256;1003285;-83
2024/01/17 06:01:28;;;;;;;50.60;26.90;;;;;;;-4.89;84.26;99303.08;102570;1254;1002607;-83
2024/01/17 06:03:55;;;;;;;52.30;27.80;;;;;;;-4.91;84.06;99297.13;103173;1256;136893;-82
2024/01/17 06:06:22;;;;;;;53.50;28.40;;;;;;;-4.92;84.00;99301.35;103349;1255;97836;-83
2024/01/17 06:08:48;;;;;;;50.90;27.70;;;;;;;-4.97;83.91;99304.17;103225;1256;137835;-83
2024/01/17 06:11:15;;;;;;;48.60;26.60;;;;;;;-5.03;84.03;99305.42;103248;1259;106314;-83
2024/01/17 06:13:42;;;;;;;46.20;25.60;;;;;;;-5.08;84.13;99310.94;102547;1258;1016388;-83
2024/01/17 06:16:09;;;;;;;47.30;24.40;;;;;;;-5.11;84.20;99313.27;103256;1256;106854;-83
2024/01/17 06:18:36;;;;;;;46.70;23.20;;;;;;;-5.14;84.14;99318.31;103207;1262;97917;-82
2024/01/17 06:21:03;;;;;;;41.50;23.30;;;;;;;-5.15;83.91;99316.94;103134;1258;138356;-81
2024/01/17 06:23:30;;;;;;;51.50;25.60;;;;;;;-5.16;84.19;99316.24;103205;1258;108823;-82
2024/01/17 06:25:57;;;;;;;49.80;25.60;;;;;;;-5.19;83.68;99316.03;103067;1259;138425;-82
2024/01/17 06:28:24;;;;;;;57.10;26.00;;;;;;;-5.26;84.03;99320.64;103208;1256;107043;-83
2024/01/17 06:30:51;;;;;;;50.00;27.30;;;;;;;-5.32;83.97;99323.61;103317;1258;97801;-83
2024/01/17 06:33:18;;;;;;;48.80;26.30;;;;;;;-5.40;83.61;99321.77;103128;1258;137906;-83
2024/01/17 06:35:48;;;;;;;47.50;27.30;;;;;;;-5.49;83.98;99314.69;102478;1256;1003397;-83
2024/01/17 06:38:15;;;;;;;44.90;24.30;;;;;;;-5.54;83.72;99316.65;103156;1258;139454;-83
2024/01/17 06:40:42;;;;;;;51.50;24.60;;;;;;;-5.58;83.91;99310.61;103179;1256;107244;-82
2024/01/17 06:43:09;;;;;;;45.60;25.20;;;;;;;-5.60;83.95;99308.71;103203;1255;97755;-84
2024/01/17 06:45:36;;;;;;;56.20;25.30;;;;;;;-5.63;84.06;99306.65;102384;1257;1003609;-83
2024/01/17 06:48:03;;;;;;;51.10;25.00;;;;;;;-5.66;83.90;99308.13;103266;1255;106961;-83
2024/01/17 06:50:30;;;;;;;49.40;24.90;;;;;;;-5.67;83.94;99303.04;103195;1255;139326;-83
2024/01/17 06:52:57;;;;;;;49.00;24.70;;;;;;;-5.67;84.23;99301.85;103183;1255;107741;-84
2024/01/17 06:55:25;;;;;;;46.60;24.00;;;;;;;-5.65;84.17;99294.08;103292;1258;98562;-83
2024/01/17 06:57:52;;;;;;;46.00;24.20;;;;;;;-5.61;84.17;99294.98;103112;1256;138496;-82
2024/01/17 07:00:20;;;;;;;47.80;24.90;;;;;;;-5.56;84.09;99291.19;103170;1258;106878;-78
2024/01/17 07:02:47;;;;;;;46.80;24.70;;;;;;;-5.53;84.22;99278.55;103143;1255;140410;-77
2024/01/17 07:05:14;;;;;;;54.50;27.70;;;;;;;-5.51;84.23;99280.10;103229;1256;108858;-75
2024/01/17 07:07:42;;;;;;;53.50;26.90;;;;;;;-5.44;83.86;99271.90;103074;1258;97802;-81
2024/01/17 07:10:10;;;;;;;52.70;26.50;;;;;;;-5.38;83.80;99270.32;102965;1258;137615;-78
2024/01/17 07:12:36;;;;;;;57.40;27.30;;;;;;;-5.29;83.89;99264.52;103162;1256;107087;-78
2024/01/17 07:15:04;;;;;;;47.20;26.40;;;;;;;-5.20;83.74;99260.94;103060;1256;138102;-76
2024/01/17 07:17:31;;;;;;;54.50;25.40;;;;;;;-5.07;83.68;99250.60;102444;1259;1003666;-76
2024/01/17 07:19:58;;;;;;;45.40;24.20;;;;;;;-4.94;83.19;99251.98;103044;1258;139689;-76
2024/01/17 07:22:24;;;;;;;44.90;23.80;;;;;;;-4.79;83.05;99254.90;103259;1256;110566;-78
2024/01/17 07:24:51;;;;;;;48.70;23.30;;;;;;;-4.66;82.78;99252.02;102454;1258;1003330;-79
2024/01/17 07:27:18;;;;;;;49.20;24.40;;;;;;;-4.51;82.23;99246.61;103174;1255;138331;-78
2024/01/17 07:29:45;;;;;;;47.20;24.90;;;;;;;-4.38;82.04;99244.38;103212;1256;107276;-78
2024/01/17 07:32:13;;;;;;;48.30;25.20;;;;;;;-4.25;81.54;99242.83;103198;1258;139265;-77
2024/01/17 07:34:39;;;;;;;49.90;26.90;;;;;;;-4.15;81.28;99236.33;103187;1256;111114;-77
2024/01/17 07:37:07;;;;;;;54.30;29.80;;;;;;;-4.00;81.20;99233.23;103259;1258;106699;-78
2024/01/17 07:39:38;;;;;;;59.70;30.30;;;;;;;-3.86;80.74;99226.60;103137;1256;138243;-79
2024/01/17 07:42:05;;;;;;;53.10;28.40;;;;;;;-3.73;80.39;99231.48;103223;1256;107357;-79
2024/01/17 07:44:33;;;;;;;43.90;25.40;;;;;;;-3.65;80.10;99227.11;102259;1256;1003900;-75
2024/01/17 07:47:00;;;;;;;44.70;24.20;;;;;;;-3.51;79.69;99221.96;103217;1258;110979;-78
2024/01/17 07:49:27;;;;;;;43.30;24.10;;;;;;;-3.41;79.15;99210.66;103153;1256;105438;-74
2024/01/17 07:51:55;;;;;;;43.70;24.70;;;;;;;-3.30;78.65;99208.34;102995;1258;138252;-74
2024/01/17 07:54:23;;;;;;;48.40;27.40;;;;;;;-3.19;78.36;99208.42;103222;1256;107707;-83
2024/01/17 07:56:50;;;;;;;45.40;25.40;;;;;;;-3.09;78.10;99203.38;103166;1256;139679;-81
2024/01/17 07:59:17;;;;;;;48.40;27.10;;;;;;;-2.97;77.82;99199.71;103245;1255;110619;-79
2024/01/17 08:01:44;;;;;;;50.10;27.40;;;;;;;-2.87;77.17;99203.66;103133;1256;108347;-78
2024/01/17 08:04:11;;;;;;;49.80;26.90;;;;;;;-2.81;77.10;99200.13;103213;1258;98032;-81
2024/01/17 08:06:39;;;;;;;48.50;27.90;;;;;;;-2.78;76.27;99191.80;103167;1254;108279;-81
2024/01/17 08:09:20;;;;;;;46.80;26.70;;;;;;;-2.72;76.29;99192.67;103113;1256;138127;-82
2024/01/17 08:11:47;;;;;;;45.30;25.70;;;;;;;-2.67;76.07;99191.35;103203;1258;111306;-86
2024/01/17 08:14:14;;;;;;;46.10;26.00;;;;;;;-2.59;75.95;99183.20;103315;1256;138865;-84
2024/01/17 08:16:41;;;;;;;46.40;26.20;;;;;;;-2.48;75.45;99180.20;103190;1256;97795;-82
2024/01/17 08:19:08;;;;;;;45.20;26.80;;;;;;;-2.37;75.21;99176.98;103145;1256;107368;-78
2024/01/17 08:21:35;;;;;;;41.80;26.00;;;;;;;-2.25;74.74;99179.05;103065;1256;138147;-78
2024/01/17 08:24:02;;;;;;;45.20;27.70;;;;;;;-2.18;73.82;99184.67;103274;1258;111311;-79
2024/01/17 08:26:29;;;;;;;45.50;27.80;;;;;;;-2.13;73.65;99181.45;102204;1261;1002575;-79
2024/01/17 08:28:56;;;;;;;48.50;27.70;;;;;;;-2.08;73.02;99186.91;103085;1258;99561;-77
2024/01/17 08:31:23;;;;;;;49.00;28.80;;;;;;;-2.02;73.43;99184.52;103046;1258;107481;-76
2024/01/17 08:33:51;;;;;;;48.70;28.20;;;;;;;-1.97;72.79;99193.91;103113;1256;138648;-76
2024/01/17 08:36:23;;;;;;;47.80;28.80;;;;;;;-1.93;72.47;99186.42;103258;1255;110720;-77
2024/01/17 08:38:51;;;;;;;52.70;28.40;;;;;;;-1.89;72.28;99187.95;103099;1256;138869;-78
2024/01/17 08:41:20;;;;;;;46.50;27.70;;;;;;;-1.87;72.15;99185.57;103222;1258;97898;-77
2024/01/17 08:43:47;;;;;;;45.90;27.60;;;;;;;-1.81;71.43;99189.67;103222;1258;109114;-79
2024/01/17 08:46:14;;;;;;;44.10;27.70;;;;;;;-1.77;70.48;99195.98;103242;1255;97704;-79
2024/01/17 08:48:41;;;;;;;44.50;27.40;;;;;;;-1.82;69.97;99193.23;103207;1257;111625;-81
2024/01/17 08:51:09;;;;;;;47.30;29.10;;;;;;;-1.89;69.90;99184.89;103078;1256;137967;-84
2024/01/17 08:53:36;;;;;;;47.80;29.00;;;;;;;-1.88;70.17;99178.75;103240;1255;98573;-71
2024/01/17 08:56:05;;;;;;;50.80;29.80;;;;;;;-1.78;70.25;99174.69;103098;1256;137814;-81
2024/01/17 08:58:31;;;;;;;43.90;28.10;;;;;;;-1.65;70.54;99171.94;103165;1258;97671;-86
2024/01/17 09:00:58;;;;;;;50.20;30.90;;;;;;;-1.46;70.84;99164.61;103175;1258;110989;-80
2024/01/17 09:03:29;;;;;;;48.40;30.20;;;;;;;-1.29;69.30;99165.43;103087;1256;137776;-78
2024/01/17 09:05:56;;;;;;;48.30;30.10;;;;;;;-1.19;68.78;99162.86;103217;1256;97823;-76
2024/01/17 09:08:23;;;;;;;46.20;29.10;;;;;;;-1.05;69.18;99152.75;103195;1256;138592;-74
2024/01/17 09:10:50;;;;;;;47.90;29.60;;;;;;;-0.83;69.59;99148.24;102477;1258;1003109;-83
2024/01/17 09:13:17;;;;;;;45.90;29.00;;;;;;;-0.64;69.16;99145.94;103230;1256;110504;-80
2024/01/17 09:15:45;;;;;;;42.70;27.80;;;;;;;-0.41;68.76;99140.35;103134;1255;138694;-82
2024/01/17 09:18:12;;;;;;;46.80;28.50;;;;;;;-0.28;67.74;99134.13;102498;1258;1003526;-83
2024/01/17 09:20:39;;;;;;;43.30;28.60;;;;;;;-0.24;66.73;99133.76;103186;1254;137754;-77
2024/01/17 09:23:06;;;;;;;45.90;28.00;;;;;;;-0.18;66.84;99126.73;103278;1258;97910;-83
2024/01/17 09:25:33;;;;;;;44.10;28.30;;;;;;;-0.11;65.84;99125.48;103259;1258;111396;-82
2024/01/17 09:27:59;;;;;;;45.60;27.70;;;;;;;-0.17;64.67;99129.79;103045;1257;137807;-88
2024/01/17 09:30:26;;;;;;;49.00;28.90;;;;;;;-0.25;65.00;99114.29;103240;1256;97826;-86
2024/01/17 09:32:53;;;;;;;45.10;28.50;;;;;;;-0.25;65.11;99109.67;103182;1255;137920;-81
2024/01/17 09:35:20;;;;;;;46.10;28.90;;;;;;;-0.16;66.06;99093.90;103279;1256;97826;-82
2024/01/17 09:37:47;;;;;;;45.10;27.50;;;;;;;0.02;65.87;99084.53;103228;1256;110758;-86
2024/01/17 09:40:15;;;;;;;40.10;26.90;;;;;;;0.17;66.03;99070.20;103127;1256;108066;-81
2024/01/17 09:42:43;;;;;;;40.70;26.30;;;;;;;0.36;65.71;99071.40;103106;1256;97819;-86
2024/01/17 09:45:14;;;;;;;44.40;26.80;;;;;;;0.47;65.10;99063.23;102990;1258;137494;-83
2024/01/17 09:47:44;;;;;;;43.50;26.30;;;;;;;0.65;64.94;99056.91;103117;1256;97912;-85
2024/01/17 09:50:11;;;;;;;40.70;25.00;;;;;;;0.74;64.03;99048.59;103242;1258;137646;-82
2024/01/17 09:52:42;;;;;;;39.10;24.60;;;;;;;0.79;63.30;99045.29;103130;1259;106718;-79
2024/01/17 09:55:12;;;;;;;39.70;25.00;;;;;;;0.83;63.78;99035.13;103203;1256;98361;-80
2024/01/17 09:57:45;;;;;;;39.50;24.60;;;;;;;0.92;63.01;99025.11;103101;1256;136973;-78
2024/01/17 10:00:15;;;;;;;39.30;23.80;;;;;;;1.02;63.66;99017.27;103240;1258;97920;-78
2024/01/17 10:02:43;;;;;;;39.70;24.40;;;;;;;1.14;63.66;99006.31;103227;1261;137603;-81
2024/01/17 10:05:11;;;;;;;38.10;24.90;;;;;;;1.25;63.56;99002.55;103220;1258;106581;-78
2024/01/17 10:07:38;;;;;;;38.80;22.90;;;;;;;1.35;62.61;98997.63;102543;1256;1003286;-83
2024/01/17 10:10:06;;;;;;;40.20;23.70;;;;;;;1.35;62.18;98990.60;102953;1258;138250;-81
2024/01/17 10:12:33;;;;;;;38.40;23.80;;;;;;;1.44;62.08;98983.27;103195;1256;97908;-84
2024/01/17 10:15:06;;;;;;;38.40;24.70;;;;;;;1.61;62.55;98983.00;103096;1258;138322;-81
2024/01/17 10:17:34;;;;;;;36.90;23.20;;;;;;;1.83;62.34;98972.70;103238;1256;107377;-79
2024/01/17 10:20:01;;;;;;;38.40;24.60;;;;;;;1.97;61.62;98965.59;102939;1258;137671;-79
2024/01/17 10:22:28;;;;;;;38.80;24.00;;;;;;;1.96;61.11;98957.05;102312;1256;1003076;-80
2024/01/17 10:24:55;;;;;;;40.10;25.30;;;;;;;1.94;60.87;98942.48;103196;1258;97680;-79
2024/01/17 10:27:22;;;;;;;38.70;23.70;;;;;;;1.98;60.21;98949.29;103132;1259;138131;-78
2024/01/17 10:29:49;;;;;;;38.90;23.90;;;;;;;2.00;59.94;98939.98;103261;1258;106481;-80
2024/01/17 10:32:17;;;;;;;40.80;25.00;;;;;;;2.13;60.81;98929.62;103104;1255;138640;-82
2024/01/17 10:34:44;;;;;;;37.60;24.60;;;;;;;2.28;59.79;98916.63;103115;1256;107721;-82
2024/01/17 10:37:14;;;;;;;44.60;27.10;;;;;;;2.25;59.26;98909.85;103118;1256;97828;-82
2024/01/17 10:39:41;;;;;;;42.10;27.40;;;;;;;2.13;59.27;98904.05;103078;1256;137535;-79
2024/01/17 10:42:20;;;;;;;43.00;27.80;;;;;;;2.00;58.88;98895.08;103038;1257;107597;-72
2024/01/17 10:44:47;;;;;;;50.00;28.80;;;;;;;1.89;59.08;98897.51;102187;1261;1002910;-79
2024/01/17 10:47:14;;;;;;;48.20;28.70;;;;;;;1.68;58.53;98894.98;102906;1259;106554;-79
2024/01/17 10:49:43;;;;;;;45.90;29.00;;;;;;;1.42;58.82;98889.62;103195;1256;97681;-79
2024/01/17 10:52:14;;;;;;;47.90;31.70;;;;;;;1.19;59.18;98879.71;103135;1255;138761;-83
2024/01/17 10:54:49;;;;;;;48.80;30.00;;;;;;;1.00;59.30;98880.52;103244;1256;106547;-81
2024/01/17 10:57:19;;;;;;;47.70;29.30;;;;;;;0.82;59.78;98876.53;103153;1258;138952;-79
2024/01/17 10:59:49;;;;;;;47.00;30.00;;;;;;;0.73;60.54;98865.72;103365;1256;105985;-82
2024/01/17 11:02:19;;;;;;;47.60;30.40;;;;;;;0.66;60.83;98864.63;103050;1256;141141;-85
2024/01/17 11:04:49;;;;;;;49.40;30.20;;;;;;;0.55;60.51;98854.33;103197;1262;110565;-82
2024/01/17 11:07:18;;;;;;;47.20;31.50;;;;;;;0.40;60.63;98850.95;103217;1258;106663;-82